Accueil
METAR-TAF:

METAR-TAF

Aéroports :

Aérodrome de Louang Namtha

Louang Namtha, Laos

latitude: 20-57-38N, longitude: 101-24-09E, altitude: 600 m

Observation

Le bulletin a été fait il y a 27 minutes, à 12:00 UTC
Vent 2 kt de sud
Température 28°C
Humidité 55%
Pression 1007 hPa
Visibilité: 1000 m
Nuages épars à une hauteur de 4000 ft
fumée

METAR: VLLN 281200Z 18002KT 1000 FU SCT040 28/18 Q1007 NOSIG

Heure: 17:57 (12:27 UTC)

Prévision

Le bulletin a été fait il y a 1 heure et 27 minutes, à 11:00 UTC
Prévision valable du 28 à 12 UTC au 29 à 12 UTC
Vent 4 kt de nord-ouest
Visibilité: 4000 m
Quelques nuages à une hauteur de 2000 ft
Quelques nuages à une hauteur de 10000 ft
fumée
Temporairement
du 28 à 18 UTC au 29 à 23 UTC
Visibilité: 2000 m
Nuages épars à une hauteur de 1300 ft
Nuages épars à une hauteur de 10000 ft
brume

TAF: VLLN 281100Z 2812/2912 32004KT 4000 FU FEW020 FEW100 TEMPO 2818/2923 2000 BR SCT013 SCT100

Observations et prévisions météorologiques de plus de 4000 aéroports (messages METAR et TAF).

Les stations disponibles sont représentées par des disques jaunes et rouges sur la carte.

Passer la souris dessus pour voir le nom de la station.

Cliquer dessus pour voir les observations et prévisions météorologiques.

Pour changer de carte: cliquez sur les boutons verts avec une croix noire pour zoomer, sur le bouton vert avec un tiret pour effectuer un zoom arrière, ou sur les flèches vertes pour les cartes adjacentes.


METAR-TAF: